sensor_id;sensor_type;location;lat;lon;timestamp;temperature;humidity
69009;SHT31;56065;52.472;13.380;2022-08-30T00:00:11;17.92;81.32
69009;SHT31;56065;52.472;13.380;2022-08-30T00:02:55;17.92;81.37
69009;SHT31;56065;52.472;13.380;2022-08-30T00:05:22;17.91;81.57
69009;SHT31;56065;52.472;13.380;2022-08-30T00:07:48;17.86;81.72
69009;SHT31;56065;52.472;13.380;2022-08-30T00:10:14;17.85;81.84
69009;SHT31;56065;52.472;13.380;2022-08-30T00:12:39;17.81;81.70
69009;SHT31;56065;52.472;13.380;2022-08-30T00:15:05;17.81;81.71
69009;SHT31;56065;52.472;13.380;2022-08-30T00:17:31;17.74;81.98
69009;SHT31;56065;52.472;13.380;2022-08-30T00:19:57;17.68;82.22
69009;SHT31;56065;52.472;13.380;2022-08-30T00:22:23;17.70;81.82
69009;SHT31;56065;52.472;13.380;2022-08-30T00:24:48;17.65;82.16
69009;SHT31;56065;52.472;13.380;2022-08-30T00:27:14;17.68;81.97
69009;SHT31;56065;52.472;13.380;2022-08-30T00:29:40;17.65;82.05
69009;SHT31;56065;52.472;13.380;2022-08-30T00:32:05;17.63;82.17
69009;SHT31;56065;52.472;13.380;2022-08-30T00:34:31;17.58;82.79
69009;SHT31;56065;52.472;13.380;2022-08-30T00:36:56;17.58;82.38
69009;SHT31;56065;52.472;13.380;2022-08-30T00:39:23;17.57;82.41
69009;SHT31;56065;52.472;13.380;2022-08-30T00:41:49;17.58;82.25
69009;SHT31;56065;52.472;13.380;2022-08-30T00:44:14;17.55;82.32
69009;SHT31;56065;52.472;13.380;2022-08-30T00:46:39;17.51;82.56
69009;SHT31;56065;52.472;13.380;2022-08-30T00:49:07;17.53;82.24
69009;SHT31;56065;52.472;13.380;2022-08-30T00:51:34;17.45;82.57
69009;SHT31;56065;52.472;13.380;2022-08-30T00:54:00;17.43;82.46
69009;SHT31;56065;52.472;13.380;2022-08-30T00:56:27;17.41;82.50
69009;SHT31;56065;52.472;13.380;2022-08-30T00:58:56;17.40;82.56
69009;SHT31;56065;52.472;13.380;2022-08-30T01:01:22;17.36;83.02
69009;SHT31;56065;52.472;13.380;2022-08-30T01:03:48;17.36;83.06
69009;SHT31;56065;52.472;13.380;2022-08-30T01:06:15;17.34;83.33
69009;SHT31;56065;52.472;13.380;2022-08-30T01:08:41;17.33;82.91
69009;SHT31;56065;52.472;13.380;2022-08-30T01:11:07;17.34;82.97
69009;SHT31;56065;52.472;13.380;2022-08-30T01:13:33;17.31;82.95
69009;SHT31;56065;52.472;13.380;2022-08-30T01:15:59;17.34;83.15
69009;SHT31;56065;52.472;13.380;2022-08-30T01:18:25;17.37;83.20
69009;SHT31;56065;52.472;13.380;2022-08-30T01:21:07;17.38;83.17
69009;SHT31;56065;52.472;13.380;2022-08-30T01:23:37;17.41;83.37
69009;SHT31;56065;52.472;13.380;2022-08-30T01:26:05;17.45;83.43
69009;SHT31;56065;52.472;13.380;2022-08-30T01:28:31;17.54;83.01
69009;SHT31;56065;52.472;13.380;2022-08-30T01:30:57;17.55;82.86
69009;SHT31;56065;52.472;13.380;2022-08-30T01:33:23;17.55;82.76
69009;SHT31;56065;52.472;13.380;2022-08-30T01:38:21;17.54;82.87
69009;SHT31;56065;52.472;13.380;2022-08-30T01:40:48;17.48;83.24
69009;SHT31;56065;52.472;13.380;2022-08-30T01:43:15;17.51;83.08
69009;SHT31;56065;52.472;13.380;2022-08-30T01:45:41;17.51;83.24
69009;SHT31;56065;52.472;13.380;2022-08-30T01:48:08;17.53;83.38
69009;SHT31;56065;52.472;13.380;2022-08-30T01:50:37;17.51;83.44
69009;SHT31;56065;52.472;13.380;2022-08-30T01:53:03;17.54;83.11
69009;SHT31;56065;52.472;13.380;2022-08-30T01:55:28;17.57;82.99
69009;SHT31;56065;52.472;13.380;2022-08-30T01:57:54;17.57;82.83
69009;SHT31;56065;52.472;13.380;2022-08-30T02:00:19;17.54;82.85
69009;SHT31;56065;52.472;13.380;2022-08-30T02:02:44;17.50;82.92
69009;SHT31;56065;52.472;13.380;2022-08-30T02:05:10;17.47;83.43
69009;SHT31;56065;52.472;13.380;2022-08-30T02:07:35;17.47;83.39
69009;SHT31;56065;52.472;13.380;2022-08-30T02:10:01;17.50;83.17
69009;SHT31;56065;52.472;13.380;2022-08-30T02:12:26;17.51;83.19
69009;SHT31;56065;52.472;13.380;2022-08-30T02:14:52;17.54;83.28
69009;SHT31;56065;52.472;13.380;2022-08-30T02:17:18;17.58;83.43
69009;SHT31;56065;52.472;13.380;2022-08-30T02:19:44;17.60;83.40
69009;SHT31;56065;52.472;13.380;2022-08-30T02:22:10;17.61;83.02
69009;SHT31;56065;52.472;13.380;2022-08-30T02:24:36;17.54;83.12
69009;SHT31;56065;52.472;13.380;2022-08-30T02:27:02;17.51;83.22
69009;SHT31;56065;52.472;13.380;2022-08-30T02:29:28;17.45;83.60
69009;SHT31;56065;52.472;13.380;2022-08-30T02:31:54;17.48;83.42
69009;SHT31;56065;52.472;13.380;2022-08-30T02:34:20;17.57;83.38
69009;SHT31;56065;52.472;13.380;2022-08-30T02:36:45;17.60;83.29
69009;SHT31;56065;52.472;13.380;2022-08-30T02:39:13;17.64;83.18
69009;SHT31;56065;52.472;13.380;2022-08-30T02:41:39;17.75;83.08
69009;SHT31;56065;52.472;13.380;2022-08-30T02:44:05;17.79;83.17
69009;SHT31;56065;52.472;13.380;2022-08-30T02:46:31;17.85;83.13
69009;SHT31;56065;52.472;13.380;2022-08-30T02:48:57;17.89;83.09
69009;SHT31;56065;52.472;13.380;2022-08-30T02:51:22;17.89;83.00
69009;SHT31;56065;52.472;13.380;2022-08-30T02:53:48;17.92;82.89
69009;SHT31;56065;52.472;13.380;2022-08-30T02:56:14;17.94;82.80
69009;SHT31;56065;52.472;13.380;2022-08-30T02:58:41;17.86;82.85
69009;SHT31;56065;52.472;13.380;2022-08-30T03:01:07;17.82;82.82
69009;SHT31;56065;52.472;13.380;2022-08-30T03:03:33;17.73;82.85
69009;SHT31;56065;52.472;13.380;2022-08-30T03:05:59;17.64;82.88
69009;SHT31;56065;52.472;13.380;2022-08-30T03:08:24;17.55;83.16
69009;SHT31;56065;52.472;13.380;2022-08-30T03:10:50;17.44;83.23
69009;SHT31;56065;52.472;13.380;2022-08-30T03:13:16;17.38;83.45
69009;SHT31;56065;52.472;13.380;2022-08-30T03:15:41;17.31;83.59
69009;SHT31;56065;52.472;13.380;2022-08-30T03:18:07;17.26;83.60
69009;SHT31;56065;52.472;13.380;2022-08-30T03:20:33;17.22;83.58
69009;SHT31;56065;52.472;13.380;2022-08-30T03:23:01;17.15;83.74
69009;SHT31;56065;52.472;13.380;2022-08-30T03:25:27;17.07;83.87
69009;SHT31;56065;52.472;13.380;2022-08-30T03:27:52;17.06;83.82
69009;SHT31;56065;52.472;13.380;2022-08-30T03:30:19;16.96;84.29
69009;SHT31;56065;52.472;13.380;2022-08-30T03:32:44;16.96;84.24
69009;SHT31;56065;52.472;13.380;2022-08-30T03:35:11;16.96;84.30
69009;SHT31;56065;52.472;13.380;2022-08-30T03:37:38;16.95;84.47
69009;SHT31;56065;52.472;13.380;2022-08-30T03:40:04;16.96;84.46
69009;SHT31;56065;52.472;13.380;2022-08-30T03:42:31;16.99;84.46
69009;SHT31;56065;52.472;13.380;2022-08-30T03:44:56;17.03;84.46
69009;SHT31;56065;52.472;13.380;2022-08-30T03:47:22;17.09;84.49
69009;SHT31;56065;52.472;13.380;2022-08-30T03:49:47;17.15;84.27
69009;SHT31;56065;52.472;13.380;2022-08-30T03:52:13;17.17;84.21
69009;SHT31;56065;52.472;13.380;2022-08-30T03:54:38;17.24;84.04
69009;SHT31;56065;52.472;13.380;2022-08-30T03:57:04;17.27;84.19
69009;SHT31;56065;52.472;13.380;2022-08-30T03:59:30;17.30;83.97
69009;SHT31;56065;52.472;13.380;2022-08-30T04:01:55;17.31;84.21
69009;SHT31;56065;52.472;13.380;2022-08-30T04:04:20;17.34;84.13
69009;SHT31;56065;52.472;13.380;2022-08-30T04:06:46;17.37;83.98
69009;SHT31;56065;52.472;13.380;2022-08-30T04:09:12;17.37;83.97
69009;SHT31;56065;52.472;13.380;2022-08-30T04:11:37;17.38;84.00
69009;SHT31;56065;52.472;13.380;2022-08-30T04:14:02;17.37;83.88
69009;SHT31;56065;52.472;13.380;2022-08-30T04:16:28;17.36;83.87
69009;SHT31;56065;52.472;13.380;2022-08-30T04:18:53;17.34;83.78
69009;SHT31;56065;52.472;13.380;2022-08-30T04:21:19;17.30;83.93
69009;SHT31;56065;52.472;13.380;2022-08-30T04:23:44;17.26;84.04
69009;SHT31;56065;52.472;13.380;2022-08-30T04:26:11;17.23;83.94
69009;SHT31;56065;52.472;13.380;2022-08-30T04:28:37;17.22;83.87
69009;SHT31;56065;52.472;13.380;2022-08-30T04:31:14;17.16;83.98
69009;SHT31;56065;52.472;13.380;2022-08-30T04:33:40;17.12;84.17
69009;SHT31;56065;52.472;13.380;2022-08-30T04:36:07;17.10;84.18
69009;SHT31;56065;52.472;13.380;2022-08-30T04:38:34;17.12;84.29
69009;SHT31;56065;52.472;13.380;2022-08-30T04:41:02;17.22;84.27
69009;SHT31;56065;52.472;13.380;2022-08-30T04:43:27;17.30;84.08
69009;SHT31;56065;52.472;13.380;2022-08-30T04:45:54;17.40;84.02
69009;SHT31;56065;52.472;13.380;2022-08-30T04:48:20;17.48;83.93
69009;SHT31;56065;52.472;13.380;2022-08-30T04:50:46;17.57;83.68
69009;SHT31;56065;52.472;13.380;2022-08-30T04:53:12;17.65;83.65
69009;SHT31;56065;52.472;13.380;2022-08-30T04:55:39;17.71;83.61
69009;SHT31;56065;52.472;13.380;2022-08-30T04:58:05;17.81;83.53
69009;SHT31;56065;52.472;13.380;2022-08-30T05:00:30;17.89;83.27
69009;SHT31;56065;52.472;13.380;2022-08-30T05:02:56;18.01;82.98
69009;SHT31;56065;52.472;13.380;2022-08-30T05:05:22;18.10;82.67
69009;SHT31;56065;52.472;13.380;2022-08-30T05:08:11;18.10;82.79
69009;SHT31;56065;52.472;13.380;2022-08-30T05:10:45;18.19;82.73
69009;SHT31;56065;52.472;13.380;2022-08-30T05:13:13;18.36;82.78
69009;SHT31;56065;52.472;13.380;2022-08-30T05:15:39;18.45;82.54
69009;SHT31;56065;52.472;13.380;2022-08-30T05:18:06;18.61;82.26
69009;SHT31;56065;52.472;13.380;2022-08-30T05:20:33;18.76;82.08
69009;SHT31;56065;52.472;13.380;2022-08-30T05:22:59;18.91;81.68
69009;SHT31;56065;52.472;13.380;2022-08-30T05:25:28;19.01;81.64
69009;SHT31;56065;52.472;13.380;2022-08-30T05:27:54;19.05;81.35
69009;SHT31;56065;52.472;13.380;2022-08-30T05:30:20;19.11;80.92
69009;SHT31;56065;52.472;13.380;2022-08-30T05:32:45;19.15;80.70
69009;SHT31;56065;52.472;13.380;2022-08-30T05:35:12;19.11;80.63
69009;SHT31;56065;52.472;13.380;2022-08-30T05:37:38;19.07;80.79
69009;SHT31;56065;52.472;13.380;2022-08-30T05:40:05;19.07;80.47
69009;SHT31;56065;52.472;13.380;2022-08-30T05:42:31;18.97;80.71
69009;SHT31;56065;52.472;13.380;2022-08-30T05:44:57;19.01;80.63
69009;SHT31;56065;52.472;13.380;2022-08-30T05:47:22;19.26;80.56
69009;SHT31;56065;52.472;13.380;2022-08-30T05:49:48;19.89;79.81
69009;SHT31;56065;52.472;13.380;2022-08-30T05:52:14;20.31;78.67
69009;SHT31;56065;52.472;13.380;2022-08-30T05:54:43;20.68;77.40
69009;SHT31;56065;52.472;13.380;2022-08-30T05:57:08;20.92;77.20
69009;SHT31;56065;52.472;13.380;2022-08-30T05:59:33;21.23;76.33
69009;SHT31;56065;52.472;13.380;2022-08-30T06:01:59;21.39;75.29
69009;SHT31;56065;52.472;13.380;2022-08-30T06:04:24;21.25;75.37
69009;SHT31;56065;52.472;13.380;2022-08-30T06:06:50;21.03;75.42
69009;SHT31;56065;52.472;13.380;2022-08-30T06:09:16;20.91;76.15
69009;SHT31;56065;52.472;13.380;2022-08-30T06:11:43;20.94;76.39
69009;SHT31;56065;52.472;13.380;2022-08-30T06:14:09;21.20;76.32
69009;SHT31;56065;52.472;13.380;2022-08-30T06:16:37;21.33;75.70
69009;SHT31;56065;52.472;13.380;2022-08-30T06:19:03;21.58;75.03
69009;SHT31;56065;52.472;13.380;2022-08-30T06:21:30;21.93;74.25
69009;SHT31;56065;52.472;13.380;2022-08-30T06:23:57;22.52;73.57
69009;SHT31;56065;52.472;13.380;2022-08-30T06:26:23;22.70;72.86
69009;SHT31;56065;52.472;13.380;2022-08-30T06:28:49;23.06;72.20
69009;SHT31;56065;52.472;13.380;2022-08-30T06:31:17;23.48;71.32
69009;SHT31;56065;52.472;13.380;2022-08-30T06:33:43;23.58;70.73
69009;SHT31;56065;52.472;13.380;2022-08-30T06:36:13;23.45;70.42
69009;SHT31;56065;52.472;13.380;2022-08-30T06:38:39;23.26;71.00
69009;SHT31;56065;52.472;13.380;2022-08-30T06:41:11;23.14;70.63
69009;SHT31;56065;52.472;13.380;2022-08-30T06:43:37;23.17;70.85
69009;SHT31;56065;52.472;13.380;2022-08-30T06:46:04;23.18;70.84
69009;SHT31;56065;52.472;13.380;2022-08-30T06:48:30;23.13;71.06
69009;SHT31;56065;52.472;13.380;2022-08-30T06:50:55;22.99;71.34
69009;SHT31;56065;52.472;13.380;2022-08-30T06:53:21;22.93;71.38
69009;SHT31;56065;52.472;13.380;2022-08-30T06:56:00;22.86;71.29
69009;SHT31;56065;52.472;13.380;2022-08-30T06:58:29;22.83;71.38
69009;SHT31;56065;52.472;13.380;2022-08-30T07:00:55;22.69;71.40
69009;SHT31;56065;52.472;13.380;2022-08-30T07:03:21;22.56;71.82
69009;SHT31;56065;52.472;13.380;2022-08-30T07:05:47;22.45;72.50
69009;SHT31;56065;52.472;13.380;2022-08-30T07:08:13;22.34;72.67
69009;SHT31;56065;52.472;13.380;2022-08-30T07:10:39;22.29;72.36
69009;SHT31;56065;52.472;13.380;2022-08-30T07:13:06;22.26;72.56
69009;SHT31;56065;52.472;13.380;2022-08-30T07:15:32;22.09;72.57
69009;SHT31;56065;52.472;13.380;2022-08-30T07:17:57;22.09;72.60
69009;SHT31;56065;52.472;13.380;2022-08-30T07:20:41;22.25;72.42
69009;SHT31;56065;52.472;13.380;2022-08-30T07:23:08;22.46;72.07
69009;SHT31;56065;52.472;13.380;2022-08-30T07:25:35;22.67;71.51
69009;SHT31;56065;52.472;13.380;2022-08-30T07:28:01;22.70;71.34
69009;SHT31;56065;52.472;13.380;2022-08-30T07:30:27;22.69;70.97
69009;SHT31;56065;52.472;13.380;2022-08-30T07:32:52;22.69;70.99
69009;SHT31;56065;52.472;13.380;2022-08-30T07:35:17;22.75;71.06
69009;SHT31;56065;52.472;13.380;2022-08-30T07:37:43;22.76;70.82
69009;SHT31;56065;52.472;13.380;2022-08-30T07:40:09;22.83;70.37
69009;SHT31;56065;52.472;13.380;2022-08-30T07:42:34;22.99;70.19
69009;SHT31;56065;52.472;13.380;2022-08-30T07:45:00;23.23;70.52
69009;SHT31;56065;52.472;13.380;2022-08-30T07:47:27;23.31;69.62
69009;SHT31;56065;52.472;13.380;2022-08-30T07:49:52;23.28;69.38
69009;SHT31;56065;52.472;13.380;2022-08-30T07:52:18;23.31;69.32
69009;SHT31;56065;52.472;13.380;2022-08-30T07:54:43;23.82;68.93
69009;SHT31;56065;52.472;13.380;2022-08-30T07:57:09;23.74;67.37
69009;SHT31;56065;52.472;13.380;2022-08-30T07:59:34;23.76;68.07
69009;SHT31;56065;52.472;13.380;2022-08-30T08:02:00;23.90;68.43
69009;SHT31;56065;52.472;13.380;2022-08-30T08:04:25;23.61;68.10
69009;SHT31;56065;52.472;13.380;2022-08-30T08:06:50;23.69;68.47
69009;SHT31;56065;52.472;13.380;2022-08-30T08:09:16;23.69;68.81
69009;SHT31;56065;52.472;13.380;2022-08-30T08:11:42;23.81;68.71
69009;SHT31;56065;52.472;13.380;2022-08-30T08:14:08;23.78;68.27
69009;SHT31;56065;52.472;13.380;2022-08-30T08:16:34;23.76;68.57
69009;SHT31;56065;52.472;13.380;2022-08-30T08:19:00;23.62;68.78
69009;SHT31;56065;52.472;13.380;2022-08-30T08:21:26;23.55;68.51
69009;SHT31;56065;52.472;13.380;2022-08-30T08:23:52;23.34;68.71
69009;SHT31;56065;52.472;13.380;2022-08-30T08:26:19;23.35;69.14
69009;SHT31;56065;52.472;13.380;2022-08-30T08:28:44;23.45;69.00
69009;SHT31;56065;52.472;13.380;2022-08-30T08:31:20;23.68;68.86
69009;SHT31;56065;52.472;13.380;2022-08-30T08:33:45;23.92;68.13
69009;SHT31;56065;52.472;13.380;2022-08-30T08:36:11;24.12;67.69
69009;SHT31;56065;52.472;13.380;2022-08-30T08:38:37;24.36;66.20
69009;SHT31;56065;52.472;13.380;2022-08-30T08:43:28;26.51;62.49
69009;SHT31;56065;52.472;13.380;2022-08-30T08:48:45;28.52;58.21
69009;SHT31;56065;52.472;13.380;2022-08-30T08:51:15;29.54;56.34
69009;SHT31;56065;52.472;13.380;2022-08-30T08:54:20;30.26;53.54
69009;SHT31;56065;52.472;13.380;2022-08-30T08:56:49;30.26;52.56
69009;SHT31;56065;52.472;13.380;2022-08-30T08:59:15;29.81;51.88
69009;SHT31;56065;52.472;13.380;2022-08-30T09:01:41;29.65;52.71
69009;SHT31;56065;52.472;13.380;2022-08-30T09:04:11;29.35;53.31
69009;SHT31;56065;52.472;13.380;2022-08-30T09:09:09;29.98;51.88
69009;SHT31;56065;52.472;13.380;2022-08-30T09:11:36;30.32;51.61
69009;SHT31;56065;52.472;13.380;2022-08-30T09:14:05;30.25;50.89
69009;SHT31;56065;52.472;13.380;2022-08-30T09:24:46;30.98;49.48
69009;SHT31;56065;52.472;13.380;2022-08-30T09:27:26;30.25;48.63
69009;SHT31;56065;52.472;13.380;2022-08-30T09:32:31;29.24;51.43
69009;SHT31;56065;52.472;13.380;2022-08-30T09:34:57;28.76;52.32
69009;SHT31;56065;52.472;13.380;2022-08-30T09:37:36;28.02;53.58
69009;SHT31;56065;52.472;13.380;2022-08-30T09:40:08;27.34;54.66
69009;SHT31;56065;52.472;13.380;2022-08-30T09:42:35;26.89;55.94
69009;SHT31;56065;52.472;13.380;2022-08-30T09:45:01;26.58;56.76
69009;SHT31;56065;52.472;13.380;2022-08-30T09:47:42;26.31;58.02
69009;SHT31;56065;52.472;13.380;2022-08-30T09:50:18;26.25;58.53
69009;SHT31;56065;52.472;13.380;2022-08-30T09:58:10;26.04;59.16
69009;SHT31;56065;52.472;13.380;2022-08-30T10:00:43;25.86;58.92
69009;SHT31;56065;52.472;13.380;2022-08-30T10:06:08;25.77;59.03
69009;SHT31;56065;52.472;13.380;2022-08-30T10:11:35;25.90;58.85
69009;SHT31;56065;52.472;13.380;2022-08-30T10:20:00;26.71;57.58
69009;SHT31;56065;52.472;13.380;2022-08-30T10:22:36;27.03;57.06
69009;SHT31;56065;52.472;13.380;2022-08-30T10:25:23;27.60;56.26
69009;SHT31;56065;52.472;13.380;2022-08-30T10:27:57;28.89;54.34
69009;SHT31;56065;52.472;13.380;2022-08-30T10:30:26;30.73;51.05
69009;SHT31;56065;52.472;13.380;2022-08-30T10:32:59;31.83;47.88
69009;SHT31;56065;52.472;13.380;2022-08-30T10:35:33;32.10;46.33
69009;SHT31;56065;52.472;13.380;2022-08-30T10:38:21;32.14;46.01
69009;SHT31;56065;52.472;13.380;2022-08-30T10:41:00;32.23;46.51
69009;SHT31;56065;52.472;13.380;2022-08-30T10:49:29;32.12;45.57
69009;SHT31;56065;52.472;13.380;2022-08-30T10:54:33;31.45;45.78
69009;SHT31;56065;52.472;13.380;2022-08-30T10:57:01;31.46;46.56
69009;SHT31;56065;52.472;13.380;2022-08-30T10:59:27;31.10;45.95
69009;SHT31;56065;52.472;13.380;2022-08-30T11:20:39;35.55;39.21
69009;SHT31;56065;52.472;13.380;2022-08-30T11:42:42;33.54;41.43
69009;SHT31;56065;52.472;13.380;2022-08-30T11:50:52;34.11;39.20
69009;SHT31;56065;52.472;13.380;2022-08-30T11:53:31;34.41;39.62
69009;SHT31;56065;52.472;13.380;2022-08-30T11:58:54;35.44;38.67
69009;SHT31;56065;52.472;13.380;2022-08-30T12:15:01;35.67;37.14
69009;SHT31;56065;52.472;13.380;2022-08-30T12:20:39;35.82;38.06
69009;SHT31;56065;52.472;13.380;2022-08-30T12:28:34;34.18;38.49
69009;SHT31;56065;52.472;13.380;2022-08-30T12:31:13;34.75;38.13
69009;SHT31;56065;52.472;13.380;2022-08-30T12:33:42;34.45;37.78
69009;SHT31;56065;52.472;13.380;2022-08-30T12:36:29;33.97;39.43
69009;SHT31;56065;52.472;13.380;2022-08-30T12:39:15;33.56;39.06
69009;SHT31;56065;52.472;13.380;2022-08-30T12:41:41;33.15;39.49
69009;SHT31;56065;52.472;13.380;2022-08-30T12:44:17;32.53;41.00
69009;SHT31;56065;52.472;13.380;2022-08-30T12:46:46;32.28;40.58
69009;SHT31;56065;52.472;13.380;2022-08-30T12:49:15;32.24;40.72
69009;SHT31;56065;52.472;13.380;2022-08-30T12:51:42;32.41;41.10
69009;SHT31;56065;52.472;13.380;2022-08-30T12:54:14;33.45;41.03
69009;SHT31;56065;52.472;13.380;2022-08-30T12:56:51;34.65;39.28
69009;SHT31;56065;52.472;13.380;2022-08-30T12:59:50;35.29;37.65
69009;SHT31;56065;52.472;13.380;2022-08-30T13:02:22;35.04;37.12
69009;SHT31;56065;52.472;13.380;2022-08-30T13:04:50;35.16;37.39
69009;SHT31;56065;52.472;13.380;2022-08-30T13:07:33;35.17;36.34
69009;SHT31;56065;52.472;13.380;2022-08-30T13:12:27;34.88;37.75
69009;SHT31;56065;52.472;13.380;2022-08-30T13:15:19;34.90;37.48
69009;SHT31;56065;52.472;13.380;2022-08-30T13:18:10;34.56;38.29
69009;SHT31;56065;52.472;13.380;2022-08-30T13:20:35;33.71;39.21
69009;SHT31;56065;52.472;13.380;2022-08-30T13:23:09;32.91;40.04
69009;SHT31;56065;52.472;13.380;2022-08-30T13:25:36;32.13;41.92
69009;SHT31;56065;52.472;13.380;2022-08-30T13:28:03;31.46;41.85
69009;SHT31;56065;52.472;13.380;2022-08-30T13:30:30;30.98;42.55
69009;SHT31;56065;52.472;13.380;2022-08-30T13:32:55;30.53;43.30
69009;SHT31;56065;52.472;13.380;2022-08-30T13:35:21;30.30;43.76
69009;SHT31;56065;52.472;13.380;2022-08-30T13:37:46;30.08;43.79
69009;SHT31;56065;52.472;13.380;2022-08-30T13:40:13;29.66;44.70
69009;SHT31;56065;52.472;13.380;2022-08-30T13:42:39;29.51;44.62
69009;SHT31;56065;52.472;13.380;2022-08-30T13:45:07;29.34;44.95
69009;SHT31;56065;52.472;13.380;2022-08-30T13:47:33;29.23;45.49
69009;SHT31;56065;52.472;13.380;2022-08-30T13:49:58;29.13;45.90
69009;SHT31;56065;52.472;13.380;2022-08-30T13:52:24;29.15;45.98
69009;SHT31;56065;52.472;13.380;2022-08-30T13:54:52;29.06;46.54
69009;SHT31;56065;52.472;13.380;2022-08-30T13:57:23;28.93;46.86
69009;SHT31;56065;52.472;13.380;2022-08-30T13:59:48;28.90;46.93
69009;SHT31;56065;52.472;13.380;2022-08-30T14:02:14;28.82;47.52
69009;SHT31;56065;52.472;13.380;2022-08-30T14:04:39;28.76;47.93
69009;SHT31;56065;52.472;13.380;2022-08-30T14:07:05;28.55;48.58
69009;SHT31;56065;52.472;13.380;2022-08-30T14:09:30;28.55;48.83
69009;SHT31;56065;52.472;13.380;2022-08-30T14:11:56;28.56;48.61
69009;SHT31;56065;52.472;13.380;2022-08-30T14:14:21;28.46;49.54
69009;SHT31;56065;52.472;13.380;2022-08-30T14:16:46;28.41;49.82
69009;SHT31;56065;52.472;13.380;2022-08-30T14:19:14;28.32;49.31
69009;SHT31;56065;52.472;13.380;2022-08-30T14:21:40;28.24;49.70
69009;SHT31;56065;52.472;13.380;2022-08-30T14:24:06;28.24;49.67
69009;SHT31;56065;52.472;13.380;2022-08-30T14:26:39;28.18;50.30
69009;SHT31;56065;52.472;13.380;2022-08-30T14:29:07;28.18;50.07
69009;SHT31;56065;52.472;13.380;2022-08-30T14:31:33;28.21;50.57
69009;SHT31;56065;52.472;13.380;2022-08-30T14:34:01;28.18;50.31
69009;SHT31;56065;52.472;13.380;2022-08-30T14:36:26;28.16;51.28
69009;SHT31;56065;52.472;13.380;2022-08-30T14:38:52;28.11;50.29
69009;SHT31;56065;52.472;13.380;2022-08-30T14:41:17;28.06;50.43
69009;SHT31;56065;52.472;13.380;2022-08-30T14:43:43;27.91;50.87
69009;SHT31;56065;52.472;13.380;2022-08-30T14:46:09;27.78;52.21
69009;SHT31;56065;52.472;13.380;2022-08-30T14:48:35;27.60;52.40
69009;SHT31;56065;52.472;13.380;2022-08-30T14:51:01;27.42;52.91
69009;SHT31;56065;52.472;13.380;2022-08-30T14:53:27;27.29;52.87
69009;SHT31;56065;52.472;13.380;2022-08-30T14:55:52;27.17;53.22
69009;SHT31;56065;52.472;13.380;2022-08-30T14:58:18;26.96;54.10
69009;SHT31;56065;52.472;13.380;2022-08-30T15:00:50;26.82;54.03
69009;SHT31;56065;52.472;13.380;2022-08-30T15:03:16;26.71;53.83
69009;SHT31;56065;52.472;13.380;2022-08-30T15:05:47;26.59;54.31
69009;SHT31;56065;52.472;13.380;2022-08-30T15:08:13;26.45;54.06
69009;SHT31;56065;52.472;13.380;2022-08-30T15:10:39;26.51;54.31
69009;SHT31;56065;52.472;13.380;2022-08-30T15:13:04;26.59;54.97
69009;SHT31;56065;52.472;13.380;2022-08-30T15:15:30;26.49;54.91
69009;SHT31;56065;52.472;13.380;2022-08-30T15:17:56;26.62;54.35
69009;SHT31;56065;52.472;13.380;2022-08-30T15:20:21;26.65;54.30
69009;SHT31;56065;52.472;13.380;2022-08-30T15:22:47;26.59;54.66
69009;SHT31;56065;52.472;13.380;2022-08-30T15:25:12;26.52;55.24
69009;SHT31;56065;52.472;13.380;2022-08-30T15:27:38;26.52;54.56
69009;SHT31;56065;52.472;13.380;2022-08-30T15:30:04;26.47;54.55
69009;SHT31;56065;52.472;13.380;2022-08-30T15:32:30;26.41;54.55
69009;SHT31;56065;52.472;13.380;2022-08-30T15:34:55;26.40;54.18
69009;SHT31;56065;52.472;13.380;2022-08-30T15:37:21;26.33;54.08
69009;SHT31;56065;52.472;13.380;2022-08-30T15:39:51;26.23;54.77
69009;SHT31;56065;52.472;13.380;2022-08-30T15:42:16;26.20;54.08
69009;SHT31;56065;52.472;13.380;2022-08-30T15:44:49;26.12;54.44
69009;SHT31;56065;52.472;13.380;2022-08-30T15:47:14;25.96;54.45
69009;SHT31;56065;52.472;13.380;2022-08-30T15:49:41;25.92;55.02
69009;SHT31;56065;52.472;13.380;2022-08-30T15:52:07;25.96;54.59
69009;SHT31;56065;52.472;13.380;2022-08-30T15:54:32;26.04;54.84
69009;SHT31;56065;52.472;13.380;2022-08-30T15:56:58;26.10;54.66
69009;SHT31;56065;52.472;13.380;2022-08-30T15:59:24;26.10;54.54
69009;SHT31;56065;52.472;13.380;2022-08-30T16:01:50;26.14;54.98
69009;SHT31;56065;52.472;13.380;2022-08-30T16:04:15;26.25;55.02
69009;SHT31;56065;52.472;13.380;2022-08-30T16:06:45;26.44;54.61
69009;SHT31;56065;52.472;13.380;2022-08-30T16:09:10;26.64;54.64
69009;SHT31;56065;52.472;13.380;2022-08-30T16:11:36;26.81;54.63
69009;SHT31;56065;52.472;13.380;2022-08-30T16:14:03;26.82;54.44
69009;SHT31;56065;52.472;13.380;2022-08-30T16:16:29;26.72;54.58
69009;SHT31;56065;52.472;13.380;2022-08-30T16:18:55;26.79;54.30
69009;SHT31;56065;52.472;13.380;2022-08-30T16:21:26;26.62;54.69
69009;SHT31;56065;52.472;13.380;2022-08-30T16:23:54;26.38;54.76
69009;SHT31;56065;52.472;13.380;2022-08-30T16:26:20;26.01;54.73
69009;SHT31;56065;52.472;13.380;2022-08-30T16:28:46;25.76;55.67
69009;SHT31;56065;52.472;13.380;2022-08-30T16:31:13;25.47;55.59
69009;SHT31;56065;52.472;13.380;2022-08-30T16:33:39;25.18;56.18
69009;SHT31;56065;52.472;13.380;2022-08-30T16:36:04;24.95;56.91
69009;SHT31;56065;52.472;13.380;2022-08-30T16:38:30;24.75;56.95
69009;SHT31;56065;52.472;13.380;2022-08-30T16:40:56;24.53;57.32
69009;SHT31;56065;52.472;13.380;2022-08-30T16:43:22;24.25;58.47
69009;SHT31;56065;52.472;13.380;2022-08-30T16:45:48;24.08;58.24
69009;SHT31;56065;52.472;13.380;2022-08-30T16:48:14;24.01;58.28
69009;SHT31;56065;52.472;13.380;2022-08-30T16:50:42;23.88;58.97
69009;SHT31;56065;52.472;13.380;2022-08-30T16:53:09;23.76;59.03
69009;SHT31;56065;52.472;13.380;2022-08-30T16:55:36;23.61;59.73
69009;SHT31;56065;52.472;13.380;2022-08-30T16:58:03;23.55;59.57
69009;SHT31;56065;52.472;13.380;2022-08-30T17:00:30;23.48;59.86
69009;SHT31;56065;52.472;13.380;2022-08-30T17:02:56;23.43;59.71
69009;SHT31;56065;52.472;13.380;2022-08-30T17:05:22;23.30;60.55
69009;SHT31;56065;52.472;13.380;2022-08-30T17:07:47;23.24;60.66
69009;SHT31;56065;52.472;13.380;2022-08-30T17:10:13;23.21;60.52
69009;SHT31;56065;52.472;13.380;2022-08-30T17:12:38;23.07;60.71
69009;SHT31;56065;52.472;13.380;2022-08-30T17:15:05;22.96;60.61